createdAt,value
2024-01-01T00:00:22.983Z,22.89
2024-01-01T00:01:23.028Z,22.89
2024-01-01T00:02:23.005Z,22.92
2024-01-01T00:03:23.563Z,22.92
2024-01-01T00:04:23.006Z,22.91
2024-01-01T00:05:23.080Z,22.88
2024-01-01T00:06:23.002Z,22.95
2024-01-01T00:07:23.009Z,22.92
2024-01-01T00:08:23.007Z,22.91
2024-01-01T00:09:22.998Z,22.86
2024-01-01T00:10:23.014Z,22.92
2024-01-01T00:11:23.018Z,22.92
2024-01-01T00:12:23.033Z,22.89
2024-01-01T00:13:23.031Z,22.95
2024-01-01T00:14:23.021Z,22.92
2024-01-01T00:15:23.006Z,22.88
2024-01-01T00:16:23.011Z,22.94
2024-01-01T00:17:23.117Z,22.92
2024-01-01T00:18:23.107Z,22.88
2024-01-01T00:19:23.058Z,22.94
2024-01-01T00:20:23.042Z,23.00
2024-01-01T00:21:23.042Z,22.99
2024-01-01T00:22:23.026Z,22.91
2024-01-01T00:23:23.049Z,22.95
2024-01-01T00:24:23.043Z,22.92
2024-01-01T00:25:23.038Z,22.94
2024-01-01T00:26:23.061Z,22.94
2024-01-01T00:27:23.039Z,22.92
2024-01-01T00:28:23.085Z,22.97
2024-01-01T00:29:28.280Z,22.97
2024-01-01T00:30:24.082Z,22.95
2024-01-01T00:31:23.056Z,22.92
2024-01-01T00:32:23.075Z,22.94
2024-01-01T00:33:23.112Z,22.95
2024-01-01T00:34:23.059Z,22.95
2024-01-01T00:35:23.074Z,22.88
2024-01-01T00:36:23.086Z,22.92
2024-01-01T00:37:23.059Z,22.91
2024-01-01T00:38:23.085Z,22.94
2024-01-01T00:39:23.067Z,22.91
2024-01-01T00:40:23.108Z,22.97
2024-01-01T00:41:23.068Z,22.94
2024-01-01T00:42:23.095Z,22.97
2024-01-01T00:43:23.078Z,22.92
2024-01-01T00:44:23.086Z,22.91
2024-01-01T00:45:25.519Z,22.97
2024-01-01T00:46:23.106Z,22.86
2024-01-01T00:47:23.208Z,22.92
2024-01-01T00:48:23.286Z,22.91
2024-01-01T00:49:23.094Z,22.95
2024-01-01T00:50:23.102Z,22.91
2024-01-01T00:51:23.083Z,22.86
2024-01-01T00:52:23.097Z,22.95
2024-01-01T00:53:23.105Z,22.91
2024-01-01T00:54:23.092Z,22.94
2024-01-01T00:55:24.319Z,22.92
2024-01-01T00:56:23.142Z,22.92
2024-01-01T00:57:23.100Z,22.94
2024-01-01T00:58:23.106Z,22.91
2024-01-01T00:59:25.976Z,22.99
2024-01-01T01:00:23.121Z,22.99
2024-01-01T01:01:23.103Z,22.94
2024-01-01T01:02:23.152Z,23.00
2024-01-01T01:03:23.143Z,22.95
2024-01-01T01:04:23.164Z,22.94
2024-01-01T01:05:23.168Z,22.94
2024-01-01T01:06:25.241Z,22.95
2024-01-01T01:07:23.124Z,22.97
2024-01-01T01:08:23.150Z,22.91
2024-01-01T01:09:23.138Z,22.97
2024-01-01T01:10:23.123Z,22.95
2024-01-01T01:11:23.123Z,22.95
2024-01-01T01:12:23.125Z,22.95
2024-01-01T01:13:23.133Z,23.00
2024-01-01T01:14:23.133Z,22.99
2024-01-01T01:15:23.125Z,22.97
2024-01-01T01:16:23.136Z,22.95
2024-01-01T01:17:23.152Z,23.00
2024-01-01T01:18:23.220Z,23.00
2024-01-01T01:19:23.150Z,22.89
2024-01-01T01:20:23.176Z,22.92
2024-01-01T01:21:23.157Z,22.95
2024-01-01T01:22:23.142Z,23.05
2024-01-01T01:23:23.151Z,22.95
2024-01-01T01:24:23.187Z,22.99
2024-01-01T01:25:23.147Z,22.95
2024-01-01T01:26:23.161Z,22.99
2024-01-01T01:27:23.171Z,22.95
2024-01-01T01:28:23.167Z,22.97
2024-01-01T01:29:23.174Z,22.99
2024-01-01T01:30:23.193Z,22.94
2024-01-01T01:31:23.169Z,22.99
2024-01-01T01:32:23.186Z,22.94
2024-01-01T01:33:23.263Z,22.99
2024-01-01T01:34:23.179Z,22.97
2024-01-01T01:35:23.178Z,22.95
2024-01-01T01:36:23.206Z,22.91
2024-01-01T01:37:23.193Z,22.95
2024-01-01T01:38:23.213Z,23.00
2024-01-01T01:39:23.187Z,22.97
2024-01-01T01:40:23.205Z,22.95
2024-01-01T01:41:23.187Z,23.00
2024-01-01T01:42:23.190Z,22.97
2024-01-01T01:43:23.203Z,23.02
2024-01-01T01:44:23.202Z,22.95
2024-01-01T01:45:23.195Z,23.00
2024-01-01T01:46:23.202Z,22.99
2024-01-01T01:47:23.249Z,22.97
2024-01-01T01:48:23.248Z,22.99
2024-01-01T01:49:23.232Z,22.99
2024-01-01T01:50:23.198Z,23.00
2024-01-01T01:51:23.203Z,23.00
2024-01-01T01:52:23.227Z,23.00
2024-01-01T01:53:23.219Z,22.99
2024-01-01T01:54:23.237Z,22.97
2024-01-01T01:55:23.234Z,22.95
2024-01-01T01:56:23.232Z,22.95
2024-01-01T01:57:23.212Z,23.00
2024-01-01T01:58:23.238Z,22.97
2024-01-01T01:59:23.274Z,22.95
2024-01-01T02:00:23.239Z,23.03
2024-01-01T02:01:23.233Z,22.95
2024-01-01T02:02:23.249Z,22.94
2024-01-01T02:03:23.280Z,22.92
2024-01-01T02:04:23.250Z,23.02
2024-01-01T02:05:23.297Z,22.99
2024-01-01T02:06:23.252Z,22.99
2024-01-01T02:07:23.237Z,22.95
2024-01-01T02:08:23.315Z,23.00
2024-01-01T02:09:23.584Z,23.00
2024-01-01T02:10:23.255Z,22.99
2024-01-01T02:11:23.383Z,23.00
2024-01-01T02:12:23.268Z,22.97
2024-01-01T02:13:23.251Z,22.97
2024-01-01T02:14:24.147Z,22.94
2024-01-01T02:15:23.249Z,22.99
2024-01-01T02:16:23.264Z,22.95
2024-01-01T02:17:23.260Z,22.92
2024-01-01T02:18:23.343Z,22.97
2024-01-01T02:19:23.277Z,22.99
2024-01-01T02:20:23.312Z,22.95
2024-01-01T02:21:23.269Z,22.95
2024-01-01T02:22:23.267Z,22.97
2024-01-01T02:23:23.373Z,22.95
2024-01-01T02:24:23.322Z,23.00
2024-01-01T02:25:23.261Z,23.02
2024-01-01T02:26:23.294Z,23.00
2024-01-01T02:27:23.273Z,22.94
2024-01-01T02:28:23.276Z,22.95
2024-01-01T02:29:23.319Z,22.97
2024-01-01T02:30:23.436Z,22.97
2024-01-01T02:31:23.511Z,22.97
2024-01-01T02:32:23.491Z,22.97
2024-01-01T02:33:23.609Z,22.92
2024-01-01T02:34:23.632Z,23.00
2024-01-01T02:35:23.550Z,22.95
2024-01-01T02:36:23.557Z,23.02
2024-01-01T02:37:23.565Z,22.95
2024-01-01T02:38:23.642Z,22.94
2024-01-01T02:41:45.845Z,22.99
2024-01-01T02:42:23.589Z,22.95
2024-01-01T02:43:23.589Z,23.00
2024-01-01T02:44:24.460Z,22.99
2024-01-01T02:45:23.627Z,23.00
2024-01-01T02:46:31.461Z,23.00
2024-01-01T02:47:23.611Z,22.99
2024-01-01T02:48:23.640Z,22.95
2024-01-01T02:49:23.611Z,22.95
2024-01-01T02:50:23.616Z,22.95
2024-01-01T02:51:23.637Z,22.99
2024-01-01T02:52:23.608Z,22.99
2024-01-01T02:53:23.614Z,22.97
2024-01-01T02:54:23.615Z,22.99
2024-01-01T02:55:23.623Z,22.99
2024-01-01T02:56:23.660Z,22.99
2024-01-01T02:57:23.624Z,23.00
2024-01-01T02:58:23.623Z,22.95
2024-01-01T02:59:23.637Z,23.03
2024-01-01T03:00:23.651Z,22.99
2024-01-01T03:01:23.633Z,22.97
2024-01-01T03:02:23.651Z,22.95
2024-01-01T03:03:23.650Z,23.00
2024-01-01T03:04:23.647Z,23.03
2024-01-01T03:05:23.831Z,23.00
2024-01-01T03:06:23.691Z,22.95
2024-01-01T03:07:23.654Z,22.95
2024-01-01T03:08:23.706Z,22.97
2024-01-01T03:09:23.788Z,23.00
2024-01-01T03:10:23.806Z,23.00
2024-01-01T03:11:23.863Z,23.00
2024-01-01T03:12:23.923Z,23.03
2024-01-01T03:13:23.997Z,23.02
2024-01-01T03:14:24.070Z,22.99
2024-01-01T03:15:24.124Z,22.99
2024-01-01T03:16:24.184Z,22.95
2024-01-01T03:17:24.238Z,22.92
2024-01-01T03:18:24.284Z,22.78
2024-01-01T03:19:24.255Z,22.72
2024-01-01T03:20:24.244Z,22.69
2024-01-01T03:21:24.276Z,22.50
2024-01-01T03:22:24.259Z,22.51
2024-01-01T03:23:24.243Z,22.38
2024-01-01T03:24:24.266Z,22.33
2024-01-01T03:25:24.254Z,22.34
2024-01-01T03:26:24.270Z,22.27
2024-01-01T03:27:24.275Z,22.24
2024-01-01T03:28:24.270Z,22.22
2024-01-01T03:29:24.293Z,22.19
2024-01-01T03:30:24.301Z,22.22
2024-01-01T03:31:24.306Z,22.17
2024-01-01T03:32:24.296Z,22.16
2024-01-01T03:33:24.409Z,22.18
2024-01-01T03:34:24.281Z,22.23
2024-01-01T03:35:24.358Z,22.23
2024-01-01T03:36:24.295Z,22.15
2024-01-01T03:37:24.287Z,22.19
2024-01-01T03:38:24.355Z,22.27
2024-01-01T03:39:24.301Z,22.27
2024-01-01T03:40:24.293Z,22.28
2024-01-01T03:41:24.316Z,22.37
2024-01-01T03:42:24.305Z,22.29
2024-01-01T03:43:24.335Z,22.34
2024-01-01T03:44:24.315Z,22.39
2024-01-01T03:45:24.312Z,22.40
2024-01-01T03:46:24.318Z,22.37
2024-01-01T03:47:27.355Z,22.40
2024-01-01T03:48:24.416Z,22.41
2024-01-01T03:49:24.353Z,22.44
2024-01-01T03:50:24.397Z,22.41
2024-01-01T03:51:24.347Z,22.49
2024-01-01T03:52:24.330Z,22.47
2024-01-01T03:53:24.342Z,22.49
2024-01-01T03:54:24.350Z,22.50
2024-01-01T03:55:24.341Z,22.47
2024-01-01T03:56:24.340Z,22.54
2024-01-01T03:57:24.328Z,22.47
2024-01-01T03:58:24.330Z,22.53
2024-01-01T03:59:24.355Z,22.51
2024-01-01T04:00:24.372Z,22.54
2024-01-01T04:01:24.367Z,22.51
2024-01-01T04:02:24.369Z,22.52
2024-01-01T04:03:24.441Z,22.52
2024-01-01T04:04:24.854Z,22.46
2024-01-01T04:05:24.402Z,22.55
2024-01-01T04:06:24.394Z,22.48
2024-01-01T04:07:24.353Z,22.44
2024-01-01T04:08:24.407Z,22.47
2024-01-01T04:09:24.832Z,22.36
2024-01-01T04:10:24.355Z,22.45
2024-01-01T04:11:24.353Z,22.44
2024-01-01T04:12:24.361Z,22.45
2024-01-01T04:13:24.374Z,22.44
2024-01-01T04:14:24.446Z,22.45
2024-01-01T04:15:24.382Z,22.49
2024-01-01T04:16:24.386Z,22.49
2024-01-01T04:17:24.413Z,22.53
2024-01-01T04:18:24.432Z,22.56
2024-01-01T04:19:24.389Z,22.51
2024-01-01T04:20:24.409Z,22.54
2024-01-01T04:21:24.378Z,22.53
2024-01-01T04:22:26.551Z,22.56
2024-01-01T04:23:24.423Z,22.53
2024-01-01T04:24:36.523Z,22.66
2024-01-01T04:25:36.529Z,22.59
2024-01-01T04:26:36.513Z,22.54
2024-01-01T04:27:36.517Z,22.58
2024-01-01T04:28:36.580Z,22.54
2024-01-01T04:29:36.524Z,22.51
2024-01-01T04:30:36.552Z,22.53
2024-01-01T04:31:43.753Z,22.61
2024-01-01T04:32:43.770Z,22.60
2024-01-01T04:33:44.305Z,22.58
2024-01-01T04:34:43.750Z,22.58
2024-01-01T04:35:43.741Z,22.45
2024-01-01T04:36:43.746Z,22.44
2024-01-01T04:37:43.775Z,22.45
2024-01-01T04:38:43.771Z,22.45
2024-01-01T04:39:43.740Z,22.36
2024-01-01T04:40:43.756Z,22.44
2024-01-01T04:41:43.766Z,22.49
2024-01-01T04:42:43.756Z,22.49
2024-01-01T04:43:43.827Z,22.47
2024-01-01T04:44:43.759Z,22.39
2024-01-01T04:45:43.772Z,22.29
2024-01-01T04:46:43.772Z,22.19
2024-01-01T04:47:43.828Z,22.16
2024-01-01T04:48:43.864Z,22.21
2024-01-01T04:49:43.777Z,22.21
2024-01-01T04:50:43.780Z,22.22
2024-01-01T04:51:43.761Z,22.21
2024-01-01T04:52:43.778Z,22.16
2024-01-01T04:53:44.583Z,22.30
2024-01-01T04:54:43.781Z,22.25
2024-01-01T04:55:43.787Z,22.21
2024-01-01T04:56:43.791Z,22.24
2024-01-01T04:57:43.796Z,22.15
2024-01-01T04:58:43.804Z,22.18
2024-01-01T04:59:43.808Z,22.19
2024-01-01T05:00:43.837Z,22.15
2024-01-01T05:01:43.818Z,22.22
2024-01-01T05:02:43.775Z,22.13
2024-01-01T05:03:43.882Z,22.26
2024-01-01T05:04:43.838Z,22.18
2024-01-01T05:05:43.822Z,22.19
2024-01-01T05:06:43.787Z,22.16
2024-01-01T05:07:43.829Z,22.18
2024-01-01T05:08:43.800Z,22.12
2024-01-01T05:09:43.801Z,22.19
2024-01-01T05:10:43.836Z,22.18
2024-01-01T05:11:43.796Z,22.07
2024-01-01T05:12:43.812Z,22.21
2024-01-01T05:13:43.847Z,22.04
2024-01-01T05:14:43.824Z,22.07
2024-01-01T05:15:43.854Z,22.15
2024-01-01T05:16:43.853Z,21.96
2024-01-01T05:17:43.814Z,21.96
2024-01-01T05:18:43.941Z,21.96
2024-01-01T05:19:43.851Z,22.06
2024-01-01T05:20:43.845Z,22.04
2024-01-01T05:21:43.864Z,21.90
2024-01-01T05:22:43.841Z,22.00
2024-01-01T05:23:43.827Z,21.90
2024-01-01T05:24:43.836Z,21.92
2024-01-01T05:25:43.860Z,21.92
2024-01-01T05:26:43.823Z,21.95
2024-01-01T05:27:43.865Z,21.98
2024-01-01T05:28:43.837Z,21.87
2024-01-01T05:29:43.849Z,21.89
2024-01-01T05:30:43.878Z,22.04
2024-01-01T05:31:43.886Z,21.93
2024-01-01T05:32:43.877Z,21.83
2024-01-01T05:33:43.980Z,21.86
2024-01-01T05:34:43.861Z,21.67
2024-01-01T05:35:43.849Z,21.73
2024-01-01T05:36:43.847Z,21.77
2024-01-01T05:37:43.880Z,21.87
2024-01-01T05:38:43.870Z,21.72
2024-01-01T05:39:43.866Z,21.78
2024-01-01T05:40:43.899Z,21.78
2024-01-01T05:41:43.882Z,21.78
2024-01-01T05:42:43.876Z,21.77
2024-01-01T05:43:43.907Z,21.69
2024-01-01T05:44:43.894Z,21.82
2024-01-01T05:45:43.875Z,21.81
2024-01-01T05:46:43.894Z,21.81
2024-01-01T05:47:43.909Z,21.73
2024-01-01T05:48:44.337Z,21.75
2024-01-01T05:49:43.927Z,21.66
2024-01-01T05:50:44.017Z,21.75
2024-01-01T05:51:43.885Z,21.83
2024-01-01T05:52:43.906Z,21.78
2024-01-01T05:53:43.883Z,21.73
2024-01-01T05:54:43.900Z,21.67
2024-01-01T05:55:43.933Z,21.73
2024-01-01T05:56:43.910Z,21.67
2024-01-01T05:57:43.893Z,21.68
2024-01-01T05:58:43.903Z,21.67
2024-01-01T05:59:43.915Z,21.66
2024-01-01T06:00:43.921Z,21.52
2024-01-01T06:01:43.915Z,21.64
2024-01-01T06:02:43.917Z,21.56
2024-01-01T06:03:43.938Z,21.59
2024-01-01T06:04:44.022Z,21.56
2024-01-01T06:05:44.015Z,21.47
2024-01-01T06:06:43.914Z,21.59
2024-01-01T06:07:43.948Z,21.59
2024-01-01T06:08:43.925Z,21.56
2024-01-01T06:09:43.933Z,21.56
2024-01-01T06:10:43.992Z,21.48
2024-01-01T06:11:43.948Z,21.52
2024-01-01T06:12:43.945Z,21.50
2024-01-01T06:13:43.970Z,21.39
2024-01-01T06:14:43.940Z,21.41
2024-01-01T06:15:43.934Z,21.42
2024-01-01T06:16:44.022Z,21.45
2024-01-01T06:17:44.073Z,21.42
2024-01-01T06:18:44.118Z,21.08
2024-01-01T06:19:43.979Z,21.28
2024-01-01T06:20:43.943Z,21.17
2024-01-01T06:21:43.956Z,21.25
2024-01-01T06:22:43.961Z,21.30
2024-01-01T06:23:43.969Z,21.08
2024-01-01T06:24:43.962Z,21.11
2024-01-01T06:25:44.006Z,21.16
2024-01-01T06:26:43.958Z,21.05
2024-01-01T06:27:43.966Z,21.13
2024-01-01T06:28:44.005Z,21.11
2024-01-01T06:29:43.969Z,21.06
2024-01-01T06:30:43.987Z,20.99
2024-01-01T06:31:43.990Z,20.91
2024-01-01T06:32:43.994Z,21.10
2024-01-01T06:33:44.025Z,20.86
2024-01-01T06:34:44.018Z,20.97
2024-01-01T06:35:43.978Z,20.94
2024-01-01T06:36:43.999Z,20.88
2024-01-01T06:37:43.996Z,21.02
2024-01-01T06:38:43.989Z,20.91
2024-01-01T06:39:43.980Z,20.92
2024-01-01T06:40:44.016Z,20.96
2024-01-01T06:41:43.989Z,20.88
2024-01-01T06:42:43.992Z,20.86
2024-01-01T06:43:44.012Z,20.76
2024-01-01T06:44:44.001Z,20.79
2024-01-01T06:45:44.013Z,20.85
2024-01-01T06:46:44.000Z,20.66
2024-01-01T06:47:44.118Z,20.71
2024-01-01T06:48:44.121Z,20.86
2024-01-01T06:49:44.036Z,20.70
2024-01-01T06:50:44.018Z,20.74
2024-01-01T06:51:44.033Z,20.80
2024-01-01T06:52:44.073Z,20.77
2024-01-01T06:53:44.040Z,20.68
2024-01-01T06:54:44.059Z,20.58
2024-01-01T06:55:44.036Z,20.57
2024-01-01T06:56:44.054Z,20.65
2024-01-01T06:57:44.030Z,20.65
2024-01-01T06:58:44.200Z,20.57
2024-01-01T06:59:44.078Z,20.58
2024-01-01T07:00:44.034Z,20.48
2024-01-01T07:01:44.068Z,20.68
2024-01-01T07:02:44.107Z,20.41
2024-01-01T07:03:44.095Z,20.58
2024-01-01T07:04:44.135Z,20.43
2024-01-01T07:05:44.092Z,20.44
2024-01-01T07:06:46.276Z,20.43
2024-01-01T07:07:44.114Z,20.38
2024-01-01T07:08:44.061Z,20.50
2024-01-01T07:09:44.083Z,20.40
2024-01-01T07:10:44.141Z,20.37
2024-01-01T07:11:44.073Z,20.54
2024-01-01T07:12:44.076Z,20.30
2024-01-01T07:13:44.105Z,20.27
2024-01-01T07:14:44.123Z,20.40
2024-01-01T07:15:44.122Z,20.16
2024-01-01T07:16:44.152Z,20.29
2024-01-01T07:17:44.188Z,20.20
2024-01-01T07:18:44.268Z,20.16
2024-01-01T07:19:44.181Z,20.24
2024-01-01T07:20:44.127Z,20.00
2024-01-01T07:21:44.110Z,20.18
2024-01-01T07:22:44.181Z,20.26
2024-01-01T07:23:44.125Z,20.15
2024-01-01T07:24:44.157Z,20.16
2024-01-01T07:25:44.142Z,20.05
2024-01-01T07:26:44.115Z,20.16
2024-01-01T07:27:44.136Z,20.15
2024-01-01T07:28:44.165Z,20.15
2024-01-01T07:29:44.161Z,20.01
2024-01-01T07:30:44.170Z,19.95
2024-01-01T07:31:44.165Z,20.01
2024-01-01T07:32:44.162Z,20.10
2024-01-01T07:33:44.186Z,20.16
2024-01-01T07:34:44.168Z,20.18
2024-01-01T07:35:44.151Z,19.98
2024-01-01T07:36:44.139Z,19.90
2024-01-01T07:37:44.149Z,20.13
2024-01-01T07:38:44.181Z,20.18
2024-01-01T07:39:44.162Z,20.06
2024-01-01T07:40:44.174Z,20.23
2024-01-01T07:41:44.162Z,20.02
2024-01-01T07:42:44.170Z,19.90
2024-01-01T07:43:44.207Z,19.92
2024-01-01T07:44:44.180Z,19.90
2024-01-01T07:45:44.181Z,19.87
2024-01-01T07:46:44.204Z,19.73
2024-01-01T07:47:44.233Z,19.87
2024-01-01T07:48:44.264Z,20.00
2024-01-01T07:49:44.274Z,19.87
2024-01-01T07:50:44.181Z,19.92
2024-01-01T07:51:44.203Z,19.89
2024-01-01T07:52:44.215Z,19.89
2024-01-01T07:53:44.175Z,19.74
2024-01-01T07:54:44.181Z,19.84
2024-01-01T07:55:44.247Z,19.92
2024-01-01T07:56:44.186Z,19.78
2024-01-01T07:57:44.203Z,19.85
2024-01-01T07:58:44.211Z,19.62
2024-01-01T07:59:44.217Z,19.73
2024-01-01T08:00:44.210Z,19.96
2024-01-01T08:01:44.263Z,19.83
2024-01-01T08:02:44.196Z,19.87
2024-01-01T08:03:44.236Z,19.70
2024-01-01T08:04:44.281Z,19.93
2024-01-01T08:05:44.268Z,19.66
2024-01-01T08:06:44.227Z,19.92
2024-01-01T08:07:44.243Z,19.63
2024-01-01T08:08:44.247Z,19.67
2024-01-01T08:09:44.248Z,19.64
2024-01-01T08:10:44.231Z,19.61
2024-01-01T08:11:44.234Z,19.61
2024-01-01T08:12:44.233Z,19.58
2024-01-01T08:13:44.224Z,19.74
2024-01-01T08:14:44.219Z,19.52
2024-01-01T08:15:44.223Z,19.52
2024-01-01T08:16:44.236Z,19.49
2024-01-01T08:17:44.271Z,19.56
2024-01-01T08:18:44.296Z,19.76
2024-01-01T08:19:44.308Z,19.39
2024-01-01T08:20:44.278Z,19.45
2024-01-01T08:21:44.295Z,19.75
2024-01-01T08:22:44.252Z,19.47
2024-01-01T08:23:44.236Z,19.72
2024-01-01T08:24:44.224Z,19.63
2024-01-01T08:25:44.261Z,19.61
2024-01-01T08:26:44.244Z,19.64
2024-01-01T08:27:44.214Z,19.41
2024-01-01T08:28:44.238Z,19.67
2024-01-01T08:29:44.240Z,19.44
2024-01-01T08:30:44.296Z,19.38
2024-01-01T08:31:44.368Z,19.55
2024-01-01T08:32:44.290Z,19.38
2024-01-01T08:33:44.308Z,19.30
2024-01-01T08:34:44.266Z,19.52
2024-01-01T08:35:44.234Z,19.63
2024-01-01T08:36:44.239Z,19.41
2024-01-01T08:37:44.281Z,19.75
2024-01-01T08:38:44.252Z,19.58
2024-01-01T08:39:44.270Z,19.64
2024-01-01T08:40:44.318Z,19.55
2024-01-01T08:41:44.239Z,19.47
2024-01-01T08:42:44.264Z,19.52
2024-01-01T08:43:44.273Z,19.47
2024-01-01T08:44:44.249Z,19.30
2024-01-01T08:45:44.259Z,19.38
2024-01-01T08:46:44.294Z,19.47
2024-01-01T08:47:44.288Z,19.29
2024-01-01T08:48:44.346Z,19.51
2024-01-01T08:49:44.329Z,19.49
2024-01-01T08:50:44.260Z,19.40
2024-01-01T08:51:44.297Z,19.46
2024-01-01T08:52:44.350Z,19.54
2024-01-01T08:53:44.253Z,19.42
2024-01-01T08:54:44.270Z,19.35
2024-01-01T08:55:44.289Z,19.39
2024-01-01T08:56:44.294Z,19.47
2024-01-01T08:57:44.268Z,19.39
2024-01-01T08:58:44.326Z,19.25
2024-01-01T08:59:44.282Z,19.38
2024-01-01T09:00:44.345Z,19.07
2024-01-01T09:01:44.326Z,19.31
2024-01-01T09:02:44.293Z,19.47
2024-01-01T09:03:44.345Z,19.40
2024-01-01T09:04:44.413Z,19.34
2024-01-01T09:05:44.438Z,19.25
2024-01-01T09:06:44.909Z,18.95
2024-01-01T09:07:44.512Z,19.18
2024-01-01T09:08:44.625Z,19.16
2024-01-01T09:09:44.659Z,19.08
2024-01-01T09:10:44.609Z,18.96
2024-01-01T09:11:44.568Z,18.94
2024-01-01T09:12:44.574Z,18.83
2024-01-01T09:13:44.607Z,18.85
2024-01-01T09:14:44.576Z,18.79
2024-01-01T09:15:44.555Z,18.82
2024-01-01T09:16:44.609Z,18.84
2024-01-01T09:17:44.708Z,18.86
2024-01-01T09:18:44.752Z,18.93
2024-01-01T09:19:44.643Z,18.94
2024-01-01T09:20:44.692Z,18.92
2024-01-01T09:21:44.598Z,18.94
2024-01-01T09:22:44.617Z,18.93
2024-01-01T09:23:44.617Z,18.94
2024-01-01T09:24:44.608Z,18.94
2024-01-01T09:25:44.638Z,18.91
2024-01-01T09:26:44.620Z,19.01
2024-01-01T09:27:44.624Z,18.98
2024-01-01T09:28:44.625Z,18.97
2024-01-01T09:29:44.637Z,18.97
2024-01-01T09:30:44.601Z,18.98
2024-01-01T09:31:44.618Z,19.00
2024-01-01T09:32:44.650Z,18.96
2024-01-01T09:33:44.724Z,18.99
2024-01-01T09:34:44.636Z,19.05
2024-01-01T09:35:44.626Z,19.02
2024-01-01T09:36:53.441Z,19.02
2024-01-01T09:37:45.659Z,19.01
2024-01-01T09:38:44.629Z,19.04
2024-01-01T09:39:44.622Z,19.06
2024-01-01T09:40:44.688Z,19.04
2024-01-01T09:41:44.633Z,19.04
2024-01-01T09:42:44.632Z,19.09
2024-01-01T09:43:44.679Z,19.09
2024-01-01T09:44:44.673Z,19.06
2024-01-01T09:45:44.646Z,19.09
2024-01-01T09:46:44.666Z,19.08
2024-01-01T09:47:44.684Z,19.16
2024-01-01T09:48:44.682Z,19.13
2024-01-01T09:49:44.675Z,19.15
2024-01-01T09:50:44.631Z,19.21
2024-01-01T09:51:44.721Z,19.23
2024-01-01T09:52:44.666Z,19.17
2024-01-01T09:53:44.649Z,19.22
2024-01-01T09:54:44.648Z,19.18
2024-01-01T09:55:44.699Z,19.22
2024-01-01T09:56:44.661Z,19.25
2024-01-01T09:57:44.634Z,19.19
2024-01-01T09:58:44.674Z,19.27
2024-01-01T09:59:44.639Z,19.19
2024-01-01T10:00:44.694Z,19.25
2024-01-01T10:01:44.710Z,19.28
2024-01-01T10:02:44.679Z,19.26
2024-01-01T10:03:44.675Z,19.30
2024-01-01T10:04:44.672Z,19.33
2024-01-01T10:05:44.723Z,19.35
2024-01-01T10:06:44.644Z,19.29
2024-01-01T10:07:44.697Z,19.35
2024-01-01T10:08:44.658Z,19.31
2024-01-01T10:09:44.688Z,19.40
2024-01-01T10:10:44.793Z,19.36
2024-01-01T10:11:44.756Z,19.39
2024-01-01T10:12:44.847Z,19.42
2024-01-01T10:13:44.920Z,19.44
2024-01-01T10:14:45.027Z,19.50
2024-01-01T10:15:44.818Z,19.44
2024-01-01T10:16:44.894Z,19.42
2024-01-01T10:18:44.869Z,19.50
2024-01-01T10:19:44.874Z,19.50
2024-01-01T10:20:45.020Z,19.49
2024-01-01T10:21:44.845Z,19.55
2024-01-01T10:22:44.918Z,19.54
2024-01-01T10:23:45.016Z,19.56
2024-01-01T10:24:45.145Z,19.56
2024-01-01T10:25:45.117Z,19.56
2024-01-01T10:26:45.152Z,19.61
2024-01-01T10:27:45.219Z,19.59
2024-01-01T10:28:45.239Z,19.61
2024-01-01T10:29:45.204Z,19.64
2024-01-01T10:30:45.264Z,19.58
2024-01-01T10:31:47.161Z,19.59
2024-01-01T10:32:45.335Z,19.62
2024-01-01T10:33:45.359Z,19.60
2024-01-01T10:34:45.326Z,19.67
2024-01-01T10:35:45.213Z,19.62
2024-01-01T10:36:45.312Z,19.64
2024-01-01T10:37:45.244Z,19.71
2024-01-01T10:38:45.270Z,19.69
2024-01-01T10:39:45.258Z,19.71
2024-01-01T10:40:45.272Z,19.68
2024-01-01T10:41:45.258Z,19.68
2024-01-01T10:42:45.254Z,19.74
2024-01-01T10:43:45.276Z,19.74
2024-01-01T10:44:45.239Z,19.73
2024-01-01T10:45:45.239Z,19.73
2024-01-01T10:46:45.287Z,19.68
2024-01-01T10:47:45.314Z,19.73
2024-01-01T10:48:45.580Z,19.78
2024-01-01T10:49:45.286Z,19.68
2024-01-01T10:50:45.258Z,19.77
2024-01-01T10:51:45.270Z,19.71
2024-01-01T10:52:45.273Z,19.79
2024-01-01T10:53:45.259Z,19.79
2024-01-01T10:54:45.293Z,19.79
2024-01-01T10:55:45.319Z,19.74
2024-01-01T10:56:45.314Z,19.78
2024-01-01T10:57:45.330Z,19.79
2024-01-01T10:58:45.305Z,19.81
2024-01-01T10:59:45.270Z,19.83
2024-01-01T11:00:45.322Z,19.83
2024-01-01T11:01:45.317Z,19.88
2024-01-01T11:02:45.281Z,19.84
2024-01-01T11:03:45.354Z,19.87
2024-01-01T11:04:45.309Z,19.89
2024-01-01T11:05:45.364Z,19.89
2024-01-01T11:06:45.308Z,19.91
2024-01-01T11:07:45.293Z,19.88
2024-01-01T11:08:45.272Z,19.86
2024-01-01T11:09:45.321Z,19.88
2024-01-01T11:10:46.300Z,19.85
2024-01-01T11:11:45.297Z,19.85
2024-01-01T11:12:45.299Z,19.89
2024-01-01T11:13:45.356Z,19.89
2024-01-01T11:14:45.411Z,19.92
2024-01-01T11:15:45.426Z,19.83
2024-01-01T11:16:59.938Z,19.89
2024-01-01T11:17:46.520Z,19.89
2024-01-01T11:18:47.215Z,19.88
2024-01-01T11:19:45.830Z,19.94
2024-01-01T11:20:45.495Z,19.85
2024-01-01T11:21:45.419Z,19.85
2024-01-01T11:22:45.416Z,19.90
2024-01-01T11:23:45.429Z,19.92
2024-01-01T11:24:45.620Z,19.90
2024-01-01T11:25:45.472Z,19.89
2024-01-01T11:26:45.422Z,19.89
2024-01-01T11:27:45.424Z,19.88
2024-01-01T11:28:45.468Z,19.85
2024-01-01T11:29:46.025Z,19.79
2024-01-01T11:30:45.553Z,19.79
2024-01-01T11:31:45.532Z,19.78
2024-01-01T11:32:45.571Z,19.74
2024-01-01T11:33:45.593Z,19.73
2024-01-01T11:34:50.732Z,19.70
2024-01-01T11:35:46.595Z,19.66
2024-01-01T11:36:45.552Z,19.64
2024-01-01T11:37:45.656Z,19.55
2024-01-01T11:38:45.589Z,19.54
2024-01-01T11:39:45.568Z,19.50
2024-01-01T11:40:45.568Z,19.48
2024-01-01T11:41:45.558Z,19.44
2024-01-01T11:42:45.580Z,19.36
2024-01-01T11:43:45.626Z,19.35
2024-01-01T11:44:45.601Z,19.35
2024-01-01T11:45:55.977Z,19.33
2024-01-01T11:46:46.595Z,19.31
2024-01-01T11:47:45.672Z,19.27
2024-01-01T11:48:45.641Z,19.27
2024-01-01T11:49:45.618Z,19.19
2024-01-01T11:50:45.585Z,19.16
2024-01-01T11:51:45.585Z,19.20
2024-01-01T11:52:45.658Z,19.14
2024-01-01T11:53:45.602Z,19.08
2024-01-01T11:54:45.601Z,19.07
2024-01-01T11:55:45.665Z,19.02
2024-01-01T11:56:45.583Z,19.01
2024-01-01T11:57:45.593Z,18.95
2024-01-01T11:58:45.614Z,18.94
2024-01-01T11:59:45.608Z,18.85
2024-01-01T12:00:45.619Z,18.76
2024-01-01T12:01:45.651Z,18.78
2024-01-01T12:02:45.616Z,18.70
2024-01-01T12:03:45.596Z,18.73
2024-01-01T12:04:52.681Z,18.78
2024-01-01T12:05:45.682Z,18.84
2024-01-01T12:06:45.658Z,18.82
2024-01-01T12:07:45.618Z,18.88
2024-01-01T12:08:45.604Z,18.90
2024-01-01T12:09:45.773Z,18.93
2024-01-01T12:10:45.664Z,18.97
2024-01-01T12:11:45.615Z,18.96
2024-01-01T12:12:45.633Z,18.91
2024-01-01T12:13:45.642Z,18.87
2024-01-01T12:14:46.122Z,18.84
2024-01-01T12:15:45.645Z,18.80
2024-01-01T12:16:45.620Z,18.79
2024-01-01T12:17:45.679Z,18.80
2024-01-01T12:18:45.730Z,18.65
2024-01-01T12:19:45.771Z,18.64
2024-01-01T12:20:45.800Z,18.61
2024-01-01T12:21:45.837Z,18.52
2024-01-01T12:22:45.910Z,18.61
2024-01-01T12:23:45.869Z,18.57
2024-01-01T12:24:45.866Z,18.48
2024-01-01T12:25:45.883Z,18.38
2024-01-01T12:26:45.871Z,18.29
2024-01-01T12:27:45.880Z,18.29
2024-01-01T12:28:45.966Z,18.21
2024-01-01T12:29:45.953Z,18.23
2024-01-01T12:30:45.874Z,18.15
2024-01-01T12:31:45.935Z,18.05
2024-01-01T12:32:45.990Z,18.05
2024-01-01T12:33:45.971Z,17.97
2024-01-01T12:34:45.960Z,18.02
2024-01-01T12:35:45.886Z,17.93
2024-01-01T12:36:45.882Z,18.01
2024-01-01T12:37:45.974Z,17.88
2024-01-01T12:38:46.037Z,17.86
2024-01-01T12:39:46.128Z,17.71
2024-01-01T12:40:46.195Z,17.62
2024-01-01T12:41:46.232Z,17.73
2024-01-01T12:42:46.295Z,17.67
2024-01-01T12:43:46.392Z,17.76
2024-01-01T12:44:46.377Z,17.59
2024-01-01T12:45:46.372Z,17.59
2024-01-01T12:46:46.412Z,17.58
2024-01-01T12:47:46.481Z,17.53
2024-01-01T12:48:46.415Z,17.49
2024-01-01T12:49:46.457Z,17.58
2024-01-01T12:50:46.376Z,17.62
2024-01-01T12:51:46.386Z,17.51
2024-01-01T12:52:46.402Z,17.53
2024-01-01T12:53:46.394Z,17.67
2024-01-01T12:54:46.405Z,17.85
2024-01-01T12:55:46.445Z,17.96